sensor_id;sensor_type;location;lat;lon;timestamp;P1;durP1;ratioP1;P2;durP2;ratioP2
43152;SDS011;28756;49.064;9.290;2024-01-30T00:00:26;8.00;;;4.80;;
43152;SDS011;28756;49.064;9.290;2024-01-30T00:02:55;6.80;;;5.15;;
43152;SDS011;28756;49.064;9.290;2024-01-30T00:05:21;8.50;;;5.50;;
43152;SDS011;28756;49.064;9.290;2024-01-30T00:07:47;6.32;;;4.85;;
43152;SDS011;28756;49.064;9.290;2024-01-30T00:10:12;7.57;;;5.47;;
43152;SDS011;28756;49.064;9.290;2024-01-30T00:12:41;6.25;;;4.80;;
43152;SDS011;28756;49.064;9.290;2024-01-30T00:15:07;5.82;;;4.40;;
43152;SDS011;28756;49.064;9.290;2024-01-30T00:17:37;7.40;;;4.53;;
43152;SDS011;28756;49.064;9.290;2024-01-30T00:20:03;6.38;;;4.07;;
43152;SDS011;28756;49.064;9.290;2024-01-30T00:22:35;7.57;;;5.30;;
43152;SDS011;28756;49.064;9.290;2024-01-30T00:25:01;5.50;;;4.53;;
43152;SDS011;28756;49.064;9.290;2024-01-30T00:27:27;6.93;;;4.97;;
43152;SDS011;28756;49.064;9.290;2024-01-30T00:29:53;6.88;;;4.97;;
43152;SDS011;28756;49.064;9.290;2024-01-30T00:32:19;8.27;;;5.95;;
43152;SDS011;28756;49.064;9.290;2024-01-30T00:34:51;6.55;;;4.80;;
43152;SDS011;28756;49.064;9.290;2024-01-30T00:37:20;6.30;;;4.72;;
43152;SDS011;28756;49.064;9.290;2024-01-30T00:39:48;6.72;;;4.53;;
43152;SDS011;28756;49.064;9.290;2024-01-30T00:42:14;8.73;;;5.55;;
43152;SDS011;28756;49.064;9.290;2024-01-30T00:44:46;7.13;;;4.50;;
43152;SDS011;28756;49.064;9.290;2024-01-30T00:47:12;6.57;;;4.43;;
43152;SDS011;28756;49.064;9.290;2024-01-30T00:49:38;7.03;;;5.10;;
43152;SDS011;28756;49.064;9.290;2024-01-30T00:52:07;8.07;;;5.40;;
43152;SDS011;28756;49.064;9.290;2024-01-30T00:54:36;8.85;;;5.57;;
43152;SDS011;28756;49.064;9.290;2024-01-30T00:57:05;8.45;;;5.47;;
43152;SDS011;28756;49.064;9.290;2024-01-30T00:59:33;6.15;;;4.88;;
43152;SDS011;28756;49.064;9.290;2024-01-30T01:01:59;6.15;;;4.38;;
43152;SDS011;28756;49.064;9.290;2024-01-30T01:04:29;6.70;;;4.90;;
43152;SDS011;28756;49.064;9.290;2024-01-30T01:06:55;7.78;;;4.93;;
43152;SDS011;28756;49.064;9.290;2024-01-30T01:09:21;5.63;;;3.90;;
43152;SDS011;28756;49.064;9.290;2024-01-30T01:11:47;8.93;;;4.28;;
43152;SDS011;28756;49.064;9.290;2024-01-30T01:14:19;5.68;;;3.97;;
43152;SDS011;28756;49.064;9.290;2024-01-30T01:16:47;6.10;;;4.50;;
43152;SDS011;28756;49.064;9.290;2024-01-30T01:19:13;6.78;;;4.63;;
43152;SDS011;28756;49.064;9.290;2024-01-30T01:21:42;6.63;;;4.20;;
43152;SDS011;28756;49.064;9.290;2024-01-30T01:24:08;6.55;;;4.65;;
43152;SDS011;28756;49.064;9.290;2024-01-30T01:26:34;6.45;;;4.85;;
43152;SDS011;28756;49.064;9.290;2024-01-30T01:29:00;8.27;;;4.65;;
43152;SDS011;28756;49.064;9.290;2024-01-30T01:31:26;8.25;;;5.55;;
43152;SDS011;28756;49.064;9.290;2024-01-30T01:33:54;7.78;;;5.05;;
43152;SDS011;28756;49.064;9.290;2024-01-30T01:36:20;7.20;;;4.88;;
43152;SDS011;28756;49.064;9.290;2024-01-30T01:38:53;7.63;;;4.75;;
43152;SDS011;28756;49.064;9.290;2024-01-30T01:41:19;6.75;;;4.55;;
43152;SDS011;28756;49.064;9.290;2024-01-30T01:43:45;6.53;;;4.57;;
43152;SDS011;28756;49.064;9.290;2024-01-30T01:46:11;6.47;;;4.75;;
43152;SDS011;28756;49.064;9.290;2024-01-30T01:48:37;7.30;;;5.18;;
43152;SDS011;28756;49.064;9.290;2024-01-30T01:51:04;6.07;;;4.22;;
43152;SDS011;28756;49.064;9.290;2024-01-30T01:53:39;6.80;;;5.00;;
43152;SDS011;28756;49.064;9.290;2024-01-30T01:56:08;6.97;;;5.07;;
43152;SDS011;28756;49.064;9.290;2024-01-30T01:58:37;6.93;;;4.57;;
43152;SDS011;28756;49.064;9.290;2024-01-30T02:01:03;6.78;;;4.90;;
43152;SDS011;28756;49.064;9.290;2024-01-30T02:03:33;5.95;;;4.40;;
43152;SDS011;28756;49.064;9.290;2024-01-30T02:06:04;6.15;;;4.68;;
43152;SDS011;28756;49.064;9.290;2024-01-30T02:08:33;5.13;;;4.30;;
43152;SDS011;28756;49.064;9.290;2024-01-30T02:11:03;4.85;;;3.75;;
43152;SDS011;28756;49.064;9.290;2024-01-30T02:13:30;4.93;;;3.60;;
43152;SDS011;28756;49.064;9.290;2024-01-30T02:15:59;6.03;;;4.38;;
43152;SDS011;28756;49.064;9.290;2024-01-30T02:18:35;4.63;;;3.75;;
43152;SDS011;28756;49.064;9.290;2024-01-30T02:21:08;6.28;;;4.50;;
43152;SDS011;28756;49.064;9.290;2024-01-30T02:23:37;5.47;;;4.00;;
43152;SDS011;28756;49.064;9.290;2024-01-30T02:26:07;5.75;;;3.50;;
43152;SDS011;28756;49.064;9.290;2024-01-30T02:28:36;4.93;;;3.80;;
43152;SDS011;28756;49.064;9.290;2024-01-30T02:31:04;4.63;;;3.35;;
43152;SDS011;28756;49.064;9.290;2024-01-30T02:33:33;4.50;;;3.90;;
43152;SDS011;28756;49.064;9.290;2024-01-30T02:36:05;5.53;;;4.13;;
43152;SDS011;28756;49.064;9.290;2024-01-30T02:38:34;5.18;;;3.60;;
43152;SDS011;28756;49.064;9.290;2024-01-30T02:41:00;5.53;;;4.10;;
43152;SDS011;28756;49.064;9.290;2024-01-30T02:43:26;5.80;;;4.30;;
43152;SDS011;28756;49.064;9.290;2024-01-30T02:45:54;7.15;;;4.45;;
43152;SDS011;28756;49.064;9.290;2024-01-30T02:48:20;5.57;;;4.10;;
43152;SDS011;28756;49.064;9.290;2024-01-30T02:50:46;7.13;;;4.57;;
43152;SDS011;28756;49.064;9.290;2024-01-30T02:53:12;7.07;;;4.45;;
43152;SDS011;28756;49.064;9.290;2024-01-30T02:55:38;5.07;;;3.70;;
43152;SDS011;28756;49.064;9.290;2024-01-30T02:58:13;7.53;;;4.13;;
43152;SDS011;28756;49.064;9.290;2024-01-30T03:00:39;6.85;;;4.32;;
43152;SDS011;28756;49.064;9.290;2024-01-30T03:03:05;7.25;;;5.53;;
43152;SDS011;28756;49.064;9.290;2024-01-30T03:05:31;5.97;;;4.22;;
43152;SDS011;28756;49.064;9.290;2024-01-30T03:07:59;4.93;;;3.95;;
43152;SDS011;28756;49.064;9.290;2024-01-30T03:10:26;4.97;;;3.83;;
43152;SDS011;28756;49.064;9.290;2024-01-30T03:12:54;5.22;;;3.70;;
43152;SDS011;28756;49.064;9.290;2024-01-30T03:15:22;5.63;;;3.58;;
43152;SDS011;28756;49.064;9.290;2024-01-30T03:17:53;6.03;;;4.10;;
43152;SDS011;28756;49.064;9.290;2024-01-30T03:20:22;4.82;;;3.72;;
43152;SDS011;28756;49.064;9.290;2024-01-30T03:22:48;7.78;;;4.60;;
43152;SDS011;28756;49.064;9.290;2024-01-30T03:25:13;7.60;;;4.95;;
43152;SDS011;28756;49.064;9.290;2024-01-30T03:27:39;10.85;;;7.15;;
43152;SDS011;28756;49.064;9.290;2024-01-30T03:30:05;11.43;;;7.60;;
43152;SDS011;28756;49.064;9.290;2024-01-30T03:32:35;7.82;;;5.30;;
43152;SDS011;28756;49.064;9.290;2024-01-30T03:35:01;6.50;;;4.78;;
43152;SDS011;28756;49.064;9.290;2024-01-30T03:37:30;8.80;;;5.80;;
43152;SDS011;28756;49.064;9.290;2024-01-30T03:40:01;9.75;;;6.05;;
43152;SDS011;28756;49.064;9.290;2024-01-30T03:42:28;10.05;;;6.53;;
43152;SDS011;28756;49.064;9.290;2024-01-30T03:44:56;10.52;;;6.85;;
43152;SDS011;28756;49.064;9.290;2024-01-30T03:47:22;8.27;;;5.57;;
43152;SDS011;28756;49.064;9.290;2024-01-30T03:49:48;8.48;;;5.30;;
43152;SDS011;28756;49.064;9.290;2024-01-30T03:52:14;6.65;;;5.00;;
43152;SDS011;28756;49.064;9.290;2024-01-30T03:54:40;6.40;;;4.35;;
43152;SDS011;28756;49.064;9.290;2024-01-30T03:57:06;5.75;;;4.30;;
43152;SDS011;28756;49.064;9.290;2024-01-30T03:59:36;7.18;;;4.47;;
43152;SDS011;28756;49.064;9.290;2024-01-30T04:02:02;6.53;;;4.47;;
43152;SDS011;28756;49.064;9.290;2024-01-30T04:04:31;5.78;;;4.10;;
43152;SDS011;28756;49.064;9.290;2024-01-30T04:07:03;7.68;;;4.90;;
43152;SDS011;28756;49.064;9.290;2024-01-30T04:09:29;6.88;;;4.63;;
43152;SDS011;28756;49.064;9.290;2024-01-30T04:11:54;7.30;;;4.90;;
43152;SDS011;28756;49.064;9.290;2024-01-30T04:14:23;6.95;;;4.03;;
43152;SDS011;28756;49.064;9.290;2024-01-30T04:16:51;5.28;;;3.95;;
43152;SDS011;28756;49.064;9.290;2024-01-30T04:19:18;7.38;;;4.25;;
43152;SDS011;28756;49.064;9.290;2024-01-30T04:21:44;7.38;;;4.50;;
43152;SDS011;28756;49.064;9.290;2024-01-30T04:24:13;5.57;;;4.03;;
43152;SDS011;28756;49.064;9.290;2024-01-30T04:26:39;7.35;;;4.47;;
43152;SDS011;28756;49.064;9.290;2024-01-30T04:29:05;7.32;;;4.30;;
43152;SDS011;28756;49.064;9.290;2024-01-30T04:31:31;5.50;;;3.65;;
43152;SDS011;28756;49.064;9.290;2024-01-30T04:34:01;5.85;;;3.67;;
43152;SDS011;28756;49.064;9.290;2024-01-30T04:36:28;7.45;;;3.97;;
43152;SDS011;28756;49.064;9.290;2024-01-30T04:38:53;5.80;;;3.63;;
43152;SDS011;28756;49.064;9.290;2024-01-30T04:41:22;5.55;;;3.30;;
43152;SDS011;28756;49.064;9.290;2024-01-30T04:43:56;7.30;;;4.05;;
43152;SDS011;28756;49.064;9.290;2024-01-30T04:46:24;6.13;;;3.78;;
43152;SDS011;28756;49.064;9.290;2024-01-30T04:48:53;5.47;;;3.40;;
43152;SDS011;28756;49.064;9.290;2024-01-30T04:51:24;4.97;;;3.42;;
43152;SDS011;28756;49.064;9.290;2024-01-30T04:53:54;5.20;;;3.47;;
43152;SDS011;28756;49.064;9.290;2024-01-30T04:56:23;6.30;;;4.20;;
43152;SDS011;28756;49.064;9.290;2024-01-30T04:58:55;6.07;;;3.72;;
43152;SDS011;28756;49.064;9.290;2024-01-30T05:01:24;6.47;;;3.97;;
43152;SDS011;28756;49.064;9.290;2024-01-30T05:03:52;4.78;;;3.78;;
43152;SDS011;28756;49.064;9.290;2024-01-30T05:06:24;6.30;;;4.57;;
43152;SDS011;28756;49.064;9.290;2024-01-30T05:08:58;5.18;;;3.50;;
43152;SDS011;28756;49.064;9.290;2024-01-30T05:11:24;5.50;;;3.72;;
43152;SDS011;28756;49.064;9.290;2024-01-30T05:14:05;6.10;;;3.95;;
43152;SDS011;28756;49.064;9.290;2024-01-30T05:16:40;4.53;;;3.60;;
43152;SDS011;28756;49.064;9.290;2024-01-30T05:19:08;6.82;;;3.80;;
43152;SDS011;28756;49.064;9.290;2024-01-30T05:21:37;5.88;;;4.05;;
43152;SDS011;28756;49.064;9.290;2024-01-30T05:24:06;5.70;;;3.33;;
43152;SDS011;28756;49.064;9.290;2024-01-30T05:26:34;6.05;;;4.15;;
43152;SDS011;28756;49.064;9.290;2024-01-30T05:29:04;5.40;;;3.47;;
43152;SDS011;28756;49.064;9.290;2024-01-30T05:31:34;4.47;;;3.42;;
43152;SDS011;28756;49.064;9.290;2024-01-30T05:34:02;4.80;;;3.50;;
43152;SDS011;28756;49.064;9.290;2024-01-30T05:36:28;7.15;;;4.13;;
43152;SDS011;28756;49.064;9.290;2024-01-30T05:38:55;6.35;;;4.30;;
43152;SDS011;28756;49.064;9.290;2024-01-30T05:41:23;8.32;;;4.95;;
43152;SDS011;28756;49.064;9.290;2024-01-30T05:43:52;5.80;;;4.30;;
43152;SDS011;28756;49.064;9.290;2024-01-30T05:46:20;7.22;;;4.50;;
43152;SDS011;28756;49.064;9.290;2024-01-30T05:48:47;5.63;;;3.83;;
43152;SDS011;28756;49.064;9.290;2024-01-30T05:51:12;5.57;;;4.18;;
43152;SDS011;28756;49.064;9.290;2024-01-30T05:53:38;4.82;;;3.75;;
43152;SDS011;28756;49.064;9.290;2024-01-30T05:56:07;7.97;;;5.05;;
43152;SDS011;28756;49.064;9.290;2024-01-30T05:58:37;8.07;;;6.00;;
43152;SDS011;28756;49.064;9.290;2024-01-30T06:01:07;5.97;;;4.50;;
43152;SDS011;28756;49.064;9.290;2024-01-30T06:03:36;6.47;;;4.72;;
43152;SDS011;28756;49.064;9.290;2024-01-30T06:06:02;6.57;;;5.30;;
43152;SDS011;28756;49.064;9.290;2024-01-30T06:08:28;5.63;;;4.38;;
43152;SDS011;28756;49.064;9.290;2024-01-30T06:10:53;5.78;;;4.55;;
43152;SDS011;28756;49.064;9.290;2024-01-30T06:13:19;6.60;;;5.18;;
43152;SDS011;28756;49.064;9.290;2024-01-30T06:15:45;6.90;;;5.07;;
43152;SDS011;28756;49.064;9.290;2024-01-30T06:18:14;7.20;;;4.78;;
43152;SDS011;28756;49.064;9.290;2024-01-30T06:20:40;6.65;;;4.80;;
43152;SDS011;28756;49.064;9.290;2024-01-30T06:23:09;4.78;;;4.18;;
43152;SDS011;28756;49.064;9.290;2024-01-30T06:25:35;7.30;;;4.78;;
43152;SDS011;28756;49.064;9.290;2024-01-30T06:28:04;5.47;;;4.43;;
43152;SDS011;28756;49.064;9.290;2024-01-30T06:30:32;5.70;;;4.10;;
43152;SDS011;28756;49.064;9.290;2024-01-30T06:33:01;8.02;;;4.47;;
43152;SDS011;28756;49.064;9.290;2024-01-30T06:35:30;8.60;;;5.40;;
43152;SDS011;28756;49.064;9.290;2024-01-30T06:38:08;8.35;;;4.78;;
43152;SDS011;28756;49.064;9.290;2024-01-30T06:40:49;6.90;;;4.80;;
43152;SDS011;28756;49.064;9.290;2024-01-30T06:43:15;6.88;;;4.90;;
43152;SDS011;28756;49.064;9.290;2024-01-30T06:46:11;5.25;;;4.20;;
43152;SDS011;28756;49.064;9.290;2024-01-30T06:48:53;5.82;;;4.40;;
43152;SDS011;28756;49.064;9.290;2024-01-30T06:51:25;7.78;;;4.32;;
43152;SDS011;28756;49.064;9.290;2024-01-30T06:53:56;5.25;;;3.85;;
43152;SDS011;28756;49.064;9.290;2024-01-30T06:56:47;6.07;;;3.70;;
43152;SDS011;28756;49.064;9.290;2024-01-30T06:59:18;6.72;;;4.70;;
43152;SDS011;28756;49.064;9.290;2024-01-30T07:01:53;5.78;;;4.05;;
43152;SDS011;28756;49.064;9.290;2024-01-30T07:04:31;8.00;;;4.35;;
43152;SDS011;28756;49.064;9.290;2024-01-30T07:07:17;11.43;;;4.68;;
43152;SDS011;28756;49.064;9.290;2024-01-30T07:09:46;5.68;;;4.13;;
43152;SDS011;28756;49.064;9.290;2024-01-30T07:12:27;6.63;;;4.70;;
43152;SDS011;28756;49.064;9.290;2024-01-30T07:14:56;8.40;;;5.32;;
43152;SDS011;28756;49.064;9.290;2024-01-30T07:17:31;7.43;;;5.38;;
43152;SDS011;28756;49.064;9.290;2024-01-30T07:20:02;8.05;;;5.00;;
43152;SDS011;28756;49.064;9.290;2024-01-30T07:22:48;6.35;;;4.32;;
43152;SDS011;28756;49.064;9.290;2024-01-30T07:25:18;7.68;;;5.15;;
43152;SDS011;28756;49.064;9.290;2024-01-30T07:28:24;7.85;;;5.18;;
43152;SDS011;28756;49.064;9.290;2024-01-30T07:30:58;8.48;;;5.75;;
43152;SDS011;28756;49.064;9.290;2024-01-30T07:33:37;7.22;;;4.93;;
43152;SDS011;28756;49.064;9.290;2024-01-30T07:36:33;7.82;;;5.00;;
43152;SDS011;28756;49.064;9.290;2024-01-30T07:39:08;16.40;;;6.30;;
43152;SDS011;28756;49.064;9.290;2024-01-30T07:41:48;10.32;;;5.55;;
43152;SDS011;28756;49.064;9.290;2024-01-30T07:44:14;11.65;;;6.13;;
43152;SDS011;28756;49.064;9.290;2024-01-30T07:46:52;8.52;;;5.95;;
43152;SDS011;28756;49.064;9.290;2024-01-30T07:49:22;9.45;;;6.25;;
43152;SDS011;28756;49.064;9.290;2024-01-30T07:52:08;8.73;;;5.70;;
43152;SDS011;28756;49.064;9.290;2024-01-30T07:54:46;9.25;;;5.97;;
43152;SDS011;28756;49.064;9.290;2024-01-30T07:57:25;10.90;;;6.80;;
43152;SDS011;28756;49.064;9.290;2024-01-30T08:00:05;10.52;;;6.82;;
43152;SDS011;28756;49.064;9.290;2024-01-30T08:02:48;9.20;;;6.50;;
43152;SDS011;28756;49.064;9.290;2024-01-30T08:05:23;8.45;;;6.35;;
43152;SDS011;28756;49.064;9.290;2024-01-30T08:08:07;8.05;;;6.28;;
43152;SDS011;28756;49.064;9.290;2024-01-30T08:10:52;7.80;;;5.38;;
43152;SDS011;28756;49.064;9.290;2024-01-30T08:13:30;7.50;;;4.97;;
43152;SDS011;28756;49.064;9.290;2024-01-30T08:16:07;8.13;;;5.22;;
43152;SDS011;28756;49.064;9.290;2024-01-30T08:18:46;6.80;;;4.55;;
43152;SDS011;28756;49.064;9.290;2024-01-30T08:21:24;9.38;;;5.57;;
43152;SDS011;28756;49.064;9.290;2024-01-30T08:23:53;7.85;;;4.70;;
43152;SDS011;28756;49.064;9.290;2024-01-30T08:26:30;6.93;;;4.85;;
43152;SDS011;28756;49.064;9.290;2024-01-30T08:29:00;6.95;;;4.95;;
43152;SDS011;28756;49.064;9.290;2024-01-30T08:31:34;5.45;;;4.55;;
43152;SDS011;28756;49.064;9.290;2024-01-30T08:34:15;7.05;;;5.10;;
43152;SDS011;28756;49.064;9.290;2024-01-30T08:36:47;5.75;;;4.50;;
43152;SDS011;28756;49.064;9.290;2024-01-30T08:39:16;6.88;;;4.80;;
43152;SDS011;28756;49.064;9.290;2024-01-30T08:41:41;7.50;;;5.32;;
43152;SDS011;28756;49.064;9.290;2024-01-30T08:44:07;7.78;;;5.82;;
43152;SDS011;28756;49.064;9.290;2024-01-30T08:46:33;6.60;;;5.10;;
43152;SDS011;28756;49.064;9.290;2024-01-30T08:48:59;6.95;;;4.85;;
43152;SDS011;28756;49.064;9.290;2024-01-30T08:51:25;7.32;;;5.22;;
43152;SDS011;28756;49.064;9.290;2024-01-30T08:53:51;7.25;;;4.85;;
43152;SDS011;28756;49.064;9.290;2024-01-30T08:56:17;7.97;;;5.68;;
43152;SDS011;28756;49.064;9.290;2024-01-30T08:58:43;8.93;;;5.90;;
43152;SDS011;28756;49.064;9.290;2024-01-30T09:01:09;8.73;;;5.55;;
43152;SDS011;28756;49.064;9.290;2024-01-30T09:03:35;8.25;;;5.80;;
43152;SDS011;28756;49.064;9.290;2024-01-30T09:06:07;5.88;;;4.57;;
43152;SDS011;28756;49.064;9.290;2024-01-30T09:08:34;7.53;;;5.45;;
43152;SDS011;28756;49.064;9.290;2024-01-30T09:11:00;9.30;;;6.55;;
43152;SDS011;28756;49.064;9.290;2024-01-30T09:13:26;7.07;;;5.43;;
43152;SDS011;28756;49.064;9.290;2024-01-30T09:15:51;10.98;;;7.28;;
43152;SDS011;28756;49.064;9.290;2024-01-30T09:18:18;8.65;;;6.10;;
43152;SDS011;28756;49.064;9.290;2024-01-30T09:20:44;10.57;;;7.05;;
43152;SDS011;28756;49.064;9.290;2024-01-30T09:23:12;9.55;;;6.43;;
43152;SDS011;28756;49.064;9.290;2024-01-30T09:25:38;11.93;;;8.25;;
43152;SDS011;28756;49.064;9.290;2024-01-30T09:28:04;11.45;;;7.50;;
43152;SDS011;28756;49.064;9.290;2024-01-30T09:30:30;9.93;;;7.32;;
43152;SDS011;28756;49.064;9.290;2024-01-30T09:32:56;9.57;;;6.85;;
43152;SDS011;28756;49.064;9.290;2024-01-30T09:35:22;9.95;;;6.75;;
43152;SDS011;28756;49.064;9.290;2024-01-30T09:37:48;9.02;;;6.45;;
43152;SDS011;28756;49.064;9.290;2024-01-30T09:40:17;13.40;;;7.05;;
43152;SDS011;28756;49.064;9.290;2024-01-30T09:42:46;13.60;;;7.65;;
43152;SDS011;28756;49.064;9.290;2024-01-30T09:45:15;9.90;;;7.05;;
43152;SDS011;28756;49.064;9.290;2024-01-30T09:47:49;13.52;;;7.15;;
43152;SDS011;28756;49.064;9.290;2024-01-30T09:50:16;9.77;;;7.20;;
43152;SDS011;28756;49.064;9.290;2024-01-30T09:52:42;13.60;;;8.65;;
43152;SDS011;28756;49.064;9.290;2024-01-30T09:55:10;12.73;;;7.57;;
43152;SDS011;28756;49.064;9.290;2024-01-30T09:57:37;10.75;;;7.13;;
43152;SDS011;28756;49.064;9.290;2024-01-30T10:00:03;9.93;;;7.00;;
43152;SDS011;28756;49.064;9.290;2024-01-30T10:02:34;12.45;;;7.60;;
43152;SDS011;28756;49.064;9.290;2024-01-30T10:05:01;9.68;;;6.03;;
43152;SDS011;28756;49.064;9.290;2024-01-30T10:07:27;10.38;;;6.82;;
43152;SDS011;28756;49.064;9.290;2024-01-30T10:09:53;11.45;;;7.93;;
43152;SDS011;28756;49.064;9.290;2024-01-30T10:12:22;11.05;;;7.45;;
43152;SDS011;28756;49.064;9.290;2024-01-30T10:14:48;13.90;;;8.68;;
43152;SDS011;28756;49.064;9.290;2024-01-30T10:17:14;10.20;;;8.05;;
43152;SDS011;28756;49.064;9.290;2024-01-30T10:19:40;13.18;;;7.88;;
43152;SDS011;28756;49.064;9.290;2024-01-30T10:22:09;10.90;;;8.02;;
43152;SDS011;28756;49.064;9.290;2024-01-30T10:24:38;11.23;;;7.63;;
43152;SDS011;28756;49.064;9.290;2024-01-30T10:27:06;13.15;;;8.68;;
43152;SDS011;28756;49.064;9.290;2024-01-30T10:29:32;11.35;;;8.15;;
43152;SDS011;28756;49.064;9.290;2024-01-30T10:32:02;9.85;;;7.30;;
43152;SDS011;28756;49.064;9.290;2024-01-30T10:34:45;9.98;;;7.32;;
43152;SDS011;28756;49.064;9.290;2024-01-30T10:37:35;10.95;;;8.23;;
43152;SDS011;28756;49.064;9.290;2024-01-30T10:40:15;9.63;;;7.40;;
43152;SDS011;28756;49.064;9.290;2024-01-30T10:42:52;10.85;;;7.70;;
43152;SDS011;28756;49.064;9.290;2024-01-30T10:45:31;11.75;;;7.25;;
43152;SDS011;28756;49.064;9.290;2024-01-30T10:48:29;10.15;;;7.32;;
43152;SDS011;28756;49.064;9.290;2024-01-30T10:51:00;9.57;;;7.60;;
43152;SDS011;28756;49.064;9.290;2024-01-30T10:53:37;8.68;;;6.85;;
43152;SDS011;28756;49.064;9.290;2024-01-30T10:56:07;11.45;;;7.70;;
43152;SDS011;28756;49.064;9.290;2024-01-30T10:58:40;9.55;;;7.45;;
43152;SDS011;28756;49.064;9.290;2024-01-30T11:01:06;9.15;;;7.22;;
43152;SDS011;28756;49.064;9.290;2024-01-30T11:03:33;8.65;;;6.90;;
43152;SDS011;28756;49.064;9.290;2024-01-30T11:06:05;15.02;;;7.50;;
43152;SDS011;28756;49.064;9.290;2024-01-30T11:08:38;10.07;;;7.97;;
43152;SDS011;28756;49.064;9.290;2024-01-30T11:11:04;10.25;;;7.63;;
43152;SDS011;28756;49.064;9.290;2024-01-30T11:14:09;11.55;;;7.07;;
43152;SDS011;28756;49.064;9.290;2024-01-30T11:16:37;9.32;;;6.68;;
43152;SDS011;28756;49.064;9.290;2024-01-30T11:19:37;10.60;;;6.05;;
43152;SDS011;28756;49.064;9.290;2024-01-30T11:22:19;7.97;;;6.20;;
43152;SDS011;28756;49.064;9.290;2024-01-30T11:24:58;7.85;;;5.78;;
43152;SDS011;28756;49.064;9.290;2024-01-30T11:27:33;10.43;;;7.03;;
43152;SDS011;28756;49.064;9.290;2024-01-30T11:30:20;6.97;;;5.57;;
43152;SDS011;28756;49.064;9.290;2024-01-30T11:33:09;9.00;;;5.85;;
43152;SDS011;28756;49.064;9.290;2024-01-30T11:38:39;6.75;;;4.93;;
43152;SDS011;28756;49.064;9.290;2024-01-30T11:41:15;5.93;;;4.70;;
43152;SDS011;28756;49.064;9.290;2024-01-30T11:43:56;9.68;;;6.03;;
43152;SDS011;28756;49.064;9.290;2024-01-30T11:46:34;8.55;;;5.68;;
43152;SDS011;28756;49.064;9.290;2024-01-30T11:49:02;6.40;;;4.93;;
43152;SDS011;28756;49.064;9.290;2024-01-30T11:51:34;6.38;;;4.72;;
43152;SDS011;28756;49.064;9.290;2024-01-30T11:54:13;8.15;;;5.93;;
43152;SDS011;28756;49.064;9.290;2024-01-30T11:56:48;10.85;;;4.88;;
43152;SDS011;28756;49.064;9.290;2024-01-30T12:02:29;5.38;;;4.18;;
43152;SDS011;28756;49.064;9.290;2024-01-30T12:05:08;5.90;;;3.85;;
43152;SDS011;28756;49.064;9.290;2024-01-30T12:07:57;6.93;;;4.10;;
43152;SDS011;28756;49.064;9.290;2024-01-30T12:10:39;6.72;;;4.07;;
43152;SDS011;28756;49.064;9.290;2024-01-30T12:13:24;5.22;;;3.80;;
43152;SDS011;28756;49.064;9.290;2024-01-30T12:15:58;8.40;;;4.40;;
43152;SDS011;28756;49.064;9.290;2024-01-30T12:18:48;5.72;;;4.22;;
43152;SDS011;28756;49.064;9.290;2024-01-30T12:21:23;6.43;;;3.95;;
43152;SDS011;28756;49.064;9.290;2024-01-30T12:23:52;6.40;;;4.32;;
43152;SDS011;28756;49.064;9.290;2024-01-30T12:26:47;8.60;;;5.15;;
43152;SDS011;28756;49.064;9.290;2024-01-30T12:29:31;7.38;;;4.13;;
43152;SDS011;28756;49.064;9.290;2024-01-30T12:32:15;3.70;;;3.08;;
43152;SDS011;28756;49.064;9.290;2024-01-30T12:35:11;6.55;;;3.97;;
43152;SDS011;28756;49.064;9.290;2024-01-30T12:37:44;7.97;;;4.65;;
43152;SDS011;28756;49.064;9.290;2024-01-30T12:40:17;6.05;;;4.05;;
43152;SDS011;28756;49.064;9.290;2024-01-30T12:42:54;7.28;;;4.47;;
43152;SDS011;28756;49.064;9.290;2024-01-30T12:45:23;7.30;;;4.90;;
43152;SDS011;28756;49.064;9.290;2024-01-30T12:47:57;7.45;;;5.28;;
43152;SDS011;28756;49.064;9.290;2024-01-30T12:50:42;6.78;;;4.53;;
43152;SDS011;28756;49.064;9.290;2024-01-30T12:53:14;7.75;;;5.05;;
43152;SDS011;28756;49.064;9.290;2024-01-30T12:55:43;8.05;;;4.75;;
43152;SDS011;28756;49.064;9.290;2024-01-30T12:58:12;6.57;;;4.30;;
43152;SDS011;28756;49.064;9.290;2024-01-30T13:00:41;5.93;;;4.28;;
43152;SDS011;28756;49.064;9.290;2024-01-30T13:03:13;6.88;;;4.13;;
43152;SDS011;28756;49.064;9.290;2024-01-30T13:05:44;5.28;;;3.90;;
43152;SDS011;28756;49.064;9.290;2024-01-30T13:08:22;5.18;;;4.05;;
43152;SDS011;28756;49.064;9.290;2024-01-30T13:11:13;5.70;;;3.55;;
43152;SDS011;28756;49.064;9.290;2024-01-30T13:13:58;5.55;;;3.42;;
43152;SDS011;28756;49.064;9.290;2024-01-30T13:16:31;5.10;;;3.90;;
43152;SDS011;28756;49.064;9.290;2024-01-30T13:19:06;4.40;;;3.08;;
43152;SDS011;28756;49.064;9.290;2024-01-30T13:21:38;5.65;;;3.10;;
43152;SDS011;28756;49.064;9.290;2024-01-30T13:24:13;5.00;;;3.50;;
43152;SDS011;28756;49.064;9.290;2024-01-30T13:26:49;4.15;;;2.72;;
43152;SDS011;28756;49.064;9.290;2024-01-30T13:29:48;6.35;;;3.60;;
43152;SDS011;28756;49.064;9.290;2024-01-30T13:32:22;4.80;;;3.22;;
43152;SDS011;28756;49.064;9.290;2024-01-30T13:34:51;4.25;;;2.95;;
43152;SDS011;28756;49.064;9.290;2024-01-30T13:37:28;3.22;;;2.75;;
43152;SDS011;28756;49.064;9.290;2024-01-30T13:40:00;4.35;;;3.17;;
43152;SDS011;28756;49.064;9.290;2024-01-30T13:45:33;6.30;;;3.55;;
43152;SDS011;28756;49.064;9.290;2024-01-30T13:48:02;5.10;;;3.67;;
43152;SDS011;28756;49.064;9.290;2024-01-30T13:50:37;4.20;;;3.00;;
43152;SDS011;28756;49.064;9.290;2024-01-30T13:53:19;4.93;;;3.15;;
43152;SDS011;28756;49.064;9.290;2024-01-30T13:55:52;4.30;;;3.30;;
43152;SDS011;28756;49.064;9.290;2024-01-30T13:58:23;5.18;;;3.50;;
43152;SDS011;28756;49.064;9.290;2024-01-30T14:00:58;5.28;;;3.40;;
43152;SDS011;28756;49.064;9.290;2024-01-30T14:03:36;6.28;;;4.03;;
43152;SDS011;28756;49.064;9.290;2024-01-30T14:06:08;5.65;;;3.50;;
43152;SDS011;28756;49.064;9.290;2024-01-30T14:08:34;4.38;;;3.42;;
43152;SDS011;28756;49.064;9.290;2024-01-30T14:11:03;4.50;;;3.30;;
43152;SDS011;28756;49.064;9.290;2024-01-30T14:13:40;4.50;;;3.42;;
43152;SDS011;28756;49.064;9.290;2024-01-30T14:16:09;6.07;;;3.47;;
43152;SDS011;28756;49.064;9.290;2024-01-30T14:18:42;5.43;;;3.53;;
43152;SDS011;28756;49.064;9.290;2024-01-30T14:21:15;6.75;;;4.15;;
43152;SDS011;28756;49.064;9.290;2024-01-30T14:23:46;7.38;;;4.53;;
43152;SDS011;28756;49.064;9.290;2024-01-30T14:26:21;5.82;;;4.20;;
43152;SDS011;28756;49.064;9.290;2024-01-30T14:29:20;7.13;;;3.92;;
43152;SDS011;28756;49.064;9.290;2024-01-30T14:32:09;10.77;;;4.15;;
43152;SDS011;28756;49.064;9.290;2024-01-30T14:34:37;4.30;;;3.53;;
43152;SDS011;28756;49.064;9.290;2024-01-30T14:37:04;5.50;;;3.15;;
43152;SDS011;28756;49.064;9.290;2024-01-30T14:39:30;4.03;;;2.85;;
43152;SDS011;28756;49.064;9.290;2024-01-30T14:41:56;8.23;;;4.30;;
43152;SDS011;28756;49.064;9.290;2024-01-30T14:44:22;6.13;;;4.90;;
43152;SDS011;28756;49.064;9.290;2024-01-30T14:46:55;9.77;;;6.00;;
43152;SDS011;28756;49.064;9.290;2024-01-30T14:49:24;14.05;;;9.15;;
43152;SDS011;28756;49.064;9.290;2024-01-30T14:51:50;13.35;;;9.43;;
43152;SDS011;28756;49.064;9.290;2024-01-30T14:54:29;14.00;;;10.18;;
43152;SDS011;28756;49.064;9.290;2024-01-30T14:56:56;15.82;;;10.20;;
43152;SDS011;28756;49.064;9.290;2024-01-30T14:59:22;17.52;;;11.43;;
43152;SDS011;28756;49.064;9.290;2024-01-30T15:01:48;17.30;;;11.20;;
43152;SDS011;28756;49.064;9.290;2024-01-30T15:04:14;15.70;;;10.05;;
43152;SDS011;28756;49.064;9.290;2024-01-30T15:06:39;17.15;;;11.75;;
43152;SDS011;28756;49.064;9.290;2024-01-30T15:09:10;12.98;;;10.10;;
43152;SDS011;28756;49.064;9.290;2024-01-30T15:11:45;14.18;;;10.15;;
43152;SDS011;28756;49.064;9.290;2024-01-30T15:14:22;20.77;;;12.70;;
43152;SDS011;28756;49.064;9.290;2024-01-30T15:16:58;20.33;;;12.18;;
43152;SDS011;28756;49.064;9.290;2024-01-30T15:19:41;20.63;;;12.00;;